Time;durP1;ratioP1;P1;durP2;ratioP2;P2;SDS_P1;SDS_P2;PMS_P1;PMS_P2;Temp;Humidity;BMP_temperature;BMP_pressure;BME280_temperature;BME280_humidity;BME280_pressure;Samples;Min_cycle;Max_cycle;Signal;HPM_P1;HPM_P2
2021/12/14 05:33:41;;;;;;;45.05;5.45;;;;;;;4.98;100.00;101479.38;5352317;24;20111;-85
2021/12/14 05:44:04;;;;;;;51.92;6.68;;;;;;;5.68;100.00;101589.19;4826895;29;20043;-84
2021/12/14 05:46:33;;;;;;;59.58;7.72;;;;;;;5.82;100.00;101604.72;4832058;29;20037;-84
2021/12/14 05:51:34;;;;;;;71.18;8.55;;;;;;;5.80;100.00;101622.72;5185006;24;20121;-84
2021/12/14 05:54:02;;;;;;;63.15;8.30;;;;;;;5.81;100.00;101619.06;4832020;29;20026;-86
2021/12/14 06:04:12;;;;;;;56.17;8.07;;;;;;;4.99;100.00;101494.38;5277054;24;20042;-86
2021/12/14 06:09:17;;;;;;;58.45;7.90;;;;;;;5.70;100.00;101624.59;4964201;24;20083;-86
2021/12/14 06:11:46;;;;;;;63.67;8.68;;;;;;;4.71;100.00;101489.84;4849001;29;20030;-84
2021/12/14 06:14:22;;;;;;;49.63;7.78;;;;;;;4.61;100.00;101481.03;4845402;29;20030;-84
2021/12/14 06:16:51;;;;;;;54.25;7.85;;;;;;;4.70;100.00;101489.97;4828591;29;20023;-84
2021/12/14 06:19:22;;;;;;;51.92;6.25;;;;;;;5.57;100.00;101627.59;4844838;29;20053;-83
2021/12/14 06:21:56;;;;;;;54.83;6.13;;;;;;;5.55;100.00;101629.56;4843287;29;20035;-84
2021/12/14 06:24:26;;;;;;;42.70;5.85;;;;;;;5.54;100.00;101617.22;4845473;29;20030;-84
2021/12/14 06:26:54;;;;;;;42.75;5.82;;;;;;;5.52;100.00;101614.69;4845789;29;20030;-83
2021/12/14 06:29:28;;;;;;;46.50;4.93;;;;;;;4.52;100.00;101473.88;5093308;24;20042;-84
2021/12/14 06:31:55;;;;;;;42.38;5.50;;;;;;;4.27;100.00;101430.00;4845002;29;20038;-84
2021/12/14 06:37:29;;;;;;;31.35;4.78;;;;;;;5.37;100.00;101595.63;4934223;24;20062;-84
2021/12/14 06:40:13;;;;;;;40.60;4.32;;;;;;;5.32;100.00;101597.03;4846128;29;20020;-84
2021/12/14 06:42:44;;;;;;;47.85;4.65;;;;;;;5.26;100.00;101598.47;4838501;29;20190;-83
2021/12/14 06:45:25;;;;;;;40.95;4.55;;;;;;;5.30;100.00;101609.72;5272574;24;20046;-84
2021/12/14 06:58:15;;;;;;;37.10;3.70;;;;;;;5.17;100.00;101612.69;5794459;24;20025;-78
2021/12/14 07:00:47;;;;;;;27.33;3.55;;;;;;;3.95;100.00;101417.88;4825681;29;20066;-85
2021/12/14 07:03:14;;;;;;;36.17;3.78;;;;;;;4.98;100.00;101578.88;4827749;29;20045;-85
2021/12/14 07:05:44;;;;;;;25.63;3.17;;;;;;;5.19;100.00;101618.72;4827513;29;20035;-85
2021/12/14 07:10:45;;;;;;;30.20;3.10;;;;;;;5.18;100.00;101617.88;5766978;24;20014;-75
2021/12/14 07:23:58;;;;;;;20.88;2.30;;;;;;;4.34;100.00;101484.44;4929307;24;20043;-84
2021/12/14 07:38:16;;;;;;;28.35;2.85;;;;;;;5.03;100.00;101631.78;5740236;24;19912;-85
2021/12/14 07:40:47;;;;;;;30.20;3.28;;;;;;;4.75;100.00;101590.84;4840498;29;20054;-86
2021/12/14 07:43:20;;;;;;;30.75;2.47;;;;;;;4.96;100.00;101620.84;4845879;29;20041;-85
2021/12/14 07:45:47;;;;;;;24.23;2.83;;;;;;;4.94;100.00;101621.00;4848183;29;20010;-86
2021/12/14 07:48:14;;;;;;;32.47;3.33;;;;;;;4.88;100.00;101610.06;4848778;29;20076;-85
2021/12/14 07:50:48;;;;;;;29.77;2.78;;;;;;;4.98;100.00;101628.72;4846838;29;20124;-85
2021/12/14 07:53:27;;;;;;;28.77;2.60;;;;;;;4.87;100.00;101619.06;4846401;29;20255;-85
2021/12/14 08:01:05;;;;;;;29.45;2.85;;;;;;;4.92;100.00;101648.78;4969347;24;20066;-85
2021/12/14 08:03:33;;;;;;;28.48;2.95;;;;;;;4.97;100.00;101651.03;4831036;29;20041;-84
2021/12/14 08:06:03;;;;;;;29.10;3.38;;;;;;;4.92;100.00;101652.31;4828198;29;20101;-85
2021/12/14 08:08:42;;;;;;;22.58;2.53;;;;;;;4.99;100.00;101667.75;4837357;29;20018;-85
2021/12/14 08:14:23;;;;;;;28.83;3.40;;;;;;;4.97;100.00;101675.91;4833199;29;20046;-85
2021/12/14 08:16:56;;;;;;;29.02;3.33;;;;;;;4.93;100.00;101686.00;4844382;29;20114;-85
2021/12/14 08:19:26;;;;;;;37.67;3.53;;;;;;;4.98;100.00;101690.91;4839888;29;20033;-85
2021/12/14 08:21:52;;;;;;;25.23;3.08;;;;;;;4.94;100.00;101673.50;4838680;29;20137;-85
2021/12/14 09:12:14;;;;;;;34.95;3.72;;;;;;;5.39;100.00;101705.75;5269946;24;20050;-85
2021/12/14 09:25:03;;;;;;;37.25;4.30;;;;;;;4.68;100.00;101585.25;5578545;24;20062;-82
2021/12/14 09:43:00;;;;;;;39.03;4.50;;;;;;;4.54;100.00;101562.53;5545142;24;20407;-84
2021/12/14 10:06:12;;;;;;;39.50;3.95;;;;;;;5.93;100.00;101731.91;5572467;24;20053;-84
2021/12/14 14:06:21;;;;;;;32.40;4.25;;;;;;;5.27;100.00;101743.44;5528058;24;20018;-81
2021/12/14 15:21:52;;;;;;;28.23;4.03;;;;;;;4.38;100.00;101586.25;5037196;24;20058;-83
2021/12/14 15:32:15;;;;;;;22.08;3.72;;;;;;;5.40;100.00;101784.00;5813174;24;20337;-80
2021/12/14 16:22:22;;;;;;;25.05;3.75;;;;;;;5.47;100.00;101749.59;5271241;24;20080;-83
2021/12/14 16:47:59;;;;;;;30.90;6.53;;;;;;;5.30;100.00;101730.63;5134598;24;20255;-81
2021/12/14 17:08:35;;;;;;;36.13;7.93;;;;;;;5.02;100.00;101660.28;4810500;29;20055;-80
2021/12/14 17:11:05;;;;;;;30.95;5.75;;;;;;;4.73;100.00;101609.66;4804465;29;20042;-79
2021/12/14 17:13:34;;;;;;;34.10;5.95;;;;;;;5.31;100.00;101707.47;4799149;29;20187;-78
2021/12/14 17:16:04;;;;;;;40.38;5.95;;;;;;;5.52;100.00;101732.13;4801147;29;20103;-78
2021/12/14 17:18:40;;;;;;;31.63;5.88;;;;;;;5.53;100.00;101733.84;4799003;29;20038;-78
2021/12/14 17:21:07;;;;;;;31.08;5.20;;;;;;;5.53;100.00;101722.28;4791359;29;20100;-78
2021/12/14 17:23:37;;;;;;;39.42;5.80;;;;;;;5.56;100.00;101728.22;4813809;29;20473;-78
2021/12/14 17:26:10;;;;;;;28.95;5.47;;;;;;;5.45;100.00;101707.00;4792950;29;20038;-78
2021/12/14 17:28:55;;;;;;;33.88;5.03;;;;;;;5.59;100.00;101733.25;4806392;29;20038;-78
2021/12/14 17:31:25;;;;;;;29.23;6.22;;;;;;;5.59;100.00;101717.22;4790937;29;20027;-78
2021/12/14 17:33:54;;;;;;;31.95;6.47;;;;;;;5.60;100.00;101716.25;4806579;29;20115;-78
2021/12/14 17:36:22;;;;;;;31.42;6.03;;;;;;;5.61;100.00;101717.94;4805430;29;20039;-78
2021/12/14 17:38:52;;;;;;;32.40;6.57;;;;;;;5.54;100.00;101700.81;4806227;29;20038;-78
2021/12/14 17:41:24;;;;;;;38.03;6.63;;;;;;;5.47;100.00;101697.03;4805855;29;20322;-78
2021/12/14 17:44:01;;;;;;;29.65;6.18;;;;;;;5.66;100.00;101736.19;4807494;29;20524;-77
2021/12/14 17:46:27;;;;;;;31.33;6.10;;;;;;;5.67;100.00;101731.69;4804067;29;20043;-78
2021/12/14 17:48:52;;;;;;;29.95;7.03;;;;;;;5.70;100.00;101731.41;4808219;29;20688;-77
2021/12/14 17:51:18;;;;;;;34.08;6.80;;;;;;;5.71;100.00;101731.25;4798585;29;20086;-78
2021/12/14 17:53:44;;;;;;;40.13;8.45;;;;;;;5.73;100.00;101734.63;4803918;29;20030;-78
2021/12/14 17:56:12;;;;;;;38.10;7.60;;;;;;;5.72;100.00;101730.25;4806410;29;20034;-78
2021/12/14 17:58:40;;;;;;;38.55;7.85;;;;;;;5.75;100.00;101718.44;4805605;29;20050;-78
2021/12/14 18:01:19;;;;;;;28.80;7.15;;;;;;;5.62;100.00;101710.75;4806622;29;20080;-78
2021/12/14 18:03:57;;;;;;;25.40;6.30;;;;;;;5.75;100.00;101731.81;4807016;29;20027;-78
2021/12/14 18:06:25;;;;;;;34.30;7.93;;;;;;;5.65;100.00;101705.97;4806534;29;20038;-78
2021/12/14 18:09:03;;;;;;;35.75;8.27;;;;;;;5.78;100.00;101736.84;4806989;29;20041;-78
2021/12/14 18:11:37;;;;;;;30.42;6.72;;;;;;;5.76;100.00;101731.69;4806062;29;20114;-78
2021/12/14 18:14:14;;;;;;;41.97;7.35;;;;;;;5.77;100.00;101725.34;4806158;29;20723;-78
2021/12/14 18:16:54;;;;;;;37.88;5.85;;;;;;;5.76;100.00;101713.00;4804197;29;20031;-78
2021/12/14 18:19:23;;;;;;;32.75;6.05;;;;;;;5.79;100.00;101719.84;4807139;29;20175;-79
2021/12/14 18:22:17;;;;;;;28.65;5.40;;;;;;;5.81;100.00;101726.72;4806811;29;20095;-78
2021/12/14 18:24:49;;;;;;;31.67;6.30;;;;;;;5.76;100.00;101710.31;4786010;30;20514;-79
2021/12/14 18:27:28;;;;;;;36.28;6.25;;;;;;;5.75;100.00;101710.44;4773019;29;20054;-77
2021/12/14 18:29:59;;;;;;;29.70;7.03;;;;;;;5.83;100.00;101730.09;4808581;29;20027;-77
2021/12/14 18:32:30;;;;;;;28.02;7.88;;;;;;;5.83;100.00;101722.09;4812473;29;20031;-78
2021/12/14 18:35:21;;;;;;;35.13;7.75;;;;;;;5.78;100.00;101712.81;4807799;29;20493;-79
2021/12/14 18:37:50;;;;;;;147.43;60.45;;;;;;;5.84;100.00;101726.44;4807590;29;20172;-78
2021/12/14 18:40:36;;;;;;;54.70;18.73;;;;;;;5.75;100.00;101713.94;4805783;29;20417;-81
2021/12/14 18:43:19;;;;;;;69.35;23.00;;;;;;;5.87;100.00;101731.50;4804741;29;20080;-78
2021/12/14 18:46:32;;;;;;;43.42;10.00;;;;;;;5.86;100.00;101728.94;4803882;29;20118;-77
2021/12/14 18:51:37;;;;;;;36.80;9.27;;;;;;;5.70;100.00;101692.19;4793095;29;20061;-78
2021/12/14 18:54:08;;;;;;;29.77;6.80;;;;;;;5.81;100.00;101704.53;4806768;29;20057;-77
2021/12/14 18:56:36;;;;;;;28.50;6.90;;;;;;;5.89;100.00;101720.66;4804727;29;20023;-77
2021/12/14 18:59:20;;;;;;;26.60;5.75;;;;;;;5.88;100.00;101716.31;4806496;29;20042;-77
2021/12/14 19:01:50;;;;;;;37.13;6.33;;;;;;;5.89;100.00;101721.50;4811171;29;20484;-78
2021/12/14 19:04:19;;;;;;;30.23;6.35;;;;;;;5.79;100.00;101698.47;4803155;29;20034;-77
2021/12/14 19:06:50;;;;;;;29.27;6.00;;;;;;;5.83;100.00;101705.22;4805169;29;20050;-77
2021/12/14 19:09:31;;;;;;;29.02;5.68;;;;;;;5.84;100.00;101707.75;4790707;29;20105;-77
2021/12/14 19:12:05;;;;;;;28.25;5.88;;;;;;;5.83;100.00;101702.56;4789193;29;20110;-78
2021/12/14 19:14:33;;;;;;;26.73;5.80;;;;;;;5.76;100.00;101696.09;4806445;29;20030;-77
2021/12/14 19:17:03;;;;;;;21.27;5.25;;;;;;;5.84;100.00;101694.38;4804897;29;20045;-77
2021/12/14 19:19:30;;;;;;;33.80;5.18;;;;;;;5.89;100.00;101701.94;4775741;29;20091;-77
2021/12/14 19:22:10;;;;;;;24.80;5.32;;;;;;;5.83;100.00;101698.06;4789740;29;20099;-77
2021/12/14 19:24:38;;;;;;;25.25;5.47;;;;;;;5.77;100.00;101693.28;4803807;29;20059;-77
2021/12/14 19:27:08;;;;;;;35.78;7.03;;;;;;;5.82;100.00;101700.84;4807416;29;20098;-78
2021/12/14 19:29:41;;;;;;;28.92;6.50;;;;;;;5.86;100.00;101710.25;4809634;29;20357;-78
2021/12/14 19:32:12;;;;;;;28.10;5.38;;;;;;;5.87;100.00;101718.13;4796704;29;20031;-77
2021/12/14 19:34:48;;;;;;;29.17;6.65;;;;;;;5.84;100.00;101706.91;4811412;29;20026;-78
2021/12/14 19:37:22;;;;;;;26.05;5.13;;;;;;;5.89;100.00;101696.59;4821607;29;20042;-77
2021/12/14 19:39:50;;;;;;;24.83;5.15;;;;;;;5.91;100.00;101705.31;4809045;29;20068;-78
2021/12/14 19:42:26;;;;;;;23.67;5.47;;;;;;;5.94;100.00;101698.88;4811668;29;20046;-78
2021/12/14 19:44:55;;;;;;;20.13;4.60;;;;;;;5.77;100.00;101677.28;4809513;29;20031;-76
2021/12/14 19:47:26;;;;;;;28.10;5.05;;;;;;;5.88;100.00;101692.25;4809645;29;20481;-78
2021/12/14 19:49:55;;;;;;;29.83;4.63;;;;;;;5.89;100.00;101697.47;4809598;29;20042;-78
2021/12/14 19:52:22;;;;;;;20.23;5.43;;;;;;;5.99;100.00;101708.13;4806405;29;20031;-77
2021/12/14 19:54:58;;;;;;;21.30;4.03;;;;;;;5.94;100.00;101696.22;4801106;29;20034;-76
2021/12/14 19:57:34;;;;;;;21.48;4.43;;;;;;;6.00;100.00;101709.00;4807648;29;20084;-77
2021/12/14 20:00:07;;;;;;;23.58;4.32;;;;;;;6.06;100.00;101709.25;4810273;29;20454;-76
2021/12/14 20:02:35;;;;;;;33.97;5.28;;;;;;;5.96;100.00;101688.88;4814489;29;20058;-78
2021/12/14 20:05:06;;;;;;;19.85;4.38;;;;;;;5.88;100.00;101681.56;4811903;29;20504;-77
2021/12/14 20:07:35;;;;;;;28.92;3.80;;;;;;;6.05;100.00;101704.88;4791753;29;20066;-78
2021/12/14 20:10:05;;;;;;;19.70;3.75;;;;;;;6.01;100.00;101695.47;4786220;29;20130;-78
2021/12/14 20:12:45;;;;;;;21.15;3.88;;;;;;;6.03;100.00;101706.03;4815896;29;20037;-78
2021/12/14 20:15:29;;;;;;;21.13;3.97;;;;;;;6.01;100.00;101703.50;4817159;29;20027;-78
2021/12/14 20:18:00;;;;;;;27.40;4.40;;;;;;;6.02;100.00;101709.66;4812936;29;20063;-78
2021/12/14 20:20:39;;;;;;;29.50;4.70;;;;;;;5.95;100.00;101700.56;4807583;29;20035;-78
2021/12/14 20:23:11;;;;;;;24.70;4.32;;;;;;;5.99;100.00;101710.78;4811782;29;20346;-78
2021/12/14 20:25:40;;;;;;;26.65;4.93;;;;;;;6.02;100.00;101713.19;4809005;29;20665;-78
2021/12/14 20:28:11;;;;;;;28.20;4.95;;;;;;;6.00;100.00;101720.50;4826257;29;20117;-78
2021/12/14 20:30:47;;;;;;;27.65;4.40;;;;;;;5.97;100.00;101704.78;4807715;29;20118;-78
2021/12/14 20:33:40;;;;;;;20.95;4.65;;;;;;;5.87;100.00;101691.44;4810670;29;20038;-78
2021/12/14 20:36:10;;;;;;;21.30;4.90;;;;;;;5.93;100.00;101698.06;4808746;29;20070;-78
2021/12/14 20:38:46;;;;;;;21.15;3.97;;;;;;;5.65;100.00;101649.91;4825212;29;20111;-77
2021/12/14 20:41:18;;;;;;;26.63;4.57;;;;;;;5.92;100.00;101690.97;4807735;29;20565;-78
2021/12/14 20:44:03;;;;;;;22.55;3.83;;;;;;;5.98;100.00;101698.44;4805396;29;20027;-78
2021/12/14 20:46:36;;;;;;;25.30;4.97;;;;;;;5.92;100.00;101679.44;4789991;29;20068;-78
2021/12/14 20:49:08;;;;;;;20.52;3.72;;;;;;;6.00;100.00;101688.47;4803065;29;20054;-78
2021/12/14 20:51:33;;;;;;;27.85;4.15;;;;;;;5.95;100.00;101673.84;4805141;29;20035;-78
2021/12/14 20:54:03;;;;;;;26.90;3.90;;;;;;;6.04;100.00;101679.16;4789727;29;20521;-78
2021/12/14 20:56:33;;;;;;;24.05;4.15;;;;;;;6.06;100.00;101695.88;4804561;29;20572;-79
2021/12/14 20:59:09;;;;;;;29.92;4.75;;;;;;;5.89;100.00;101667.22;4809538;29;20030;-78
2021/12/14 21:01:44;;;;;;;28.63;5.05;;;;;;;5.92;100.00;101677.63;4804221;29;20031;-80
2021/12/14 21:04:13;;;;;;;27.88;4.10;;;;;;;6.06;100.00;101692.34;4811089;29;20113;-78
2021/12/14 21:06:48;;;;;;;23.35;3.63;;;;;;;5.99;100.00;101680.56;4805813;29;20103;-79
2021/12/14 21:09:16;;;;;;;33.60;4.57;;;;;;;6.10;100.00;101696.44;4801474;29;20051;-79
2021/12/14 21:11:48;;;;;;;24.50;4.35;;;;;;;6.04;100.00;101679.16;4806304;29;20046;-78
2021/12/14 21:14:17;;;;;;;25.77;4.57;;;;;;;5.96;100.00;101670.19;4806128;29;20072;-79
2021/12/14 21:16:49;;;;;;;24.73;4.28;;;;;;;6.05;100.00;101674.66;4790847;29;20031;-79
2021/12/14 21:19:22;;;;;;;22.25;4.00;;;;;;;6.08;100.00;101685.03;4804398;29;20023;-79
2021/12/14 21:21:49;;;;;;;26.77;3.92;;;;;;;6.15;100.00;101682.63;4802938;29;20027;-79
2021/12/14 21:24:18;;;;;;;21.38;4.15;;;;;;;6.15;100.00;101682.63;4804803;29;20034;-80
2021/12/14 21:26:46;;;;;;;23.05;5.68;;;;;;;6.16;100.00;101684.28;4793911;29;20062;-77
2021/12/14 21:29:11;;;;;;;25.00;4.43;;;;;;;6.09;100.00;101674.22;4803983;29;20039;-78
2021/12/14 21:31:42;;;;;;;20.40;4.40;;;;;;;6.15;100.00;101683.44;4790175;29;20075;-80
2021/12/14 21:34:22;;;;;;;18.80;4.97;;;;;;;6.14;100.00;101672.94;4804325;29;20039;-80
2021/12/14 21:36:51;;;;;;;26.80;7.80;;;;;;;6.15;100.00;101677.28;4812752;29;20035;-79
2021/12/14 21:39:23;;;;;;;21.02;3.97;;;;;;;6.10;100.00;101673.22;4806529;29;20022;-79
2021/12/14 21:41:54;;;;;;;27.52;4.93;;;;;;;6.07;100.00;101667.34;4804554;29;20027;-79
2021/12/14 21:47:26;;;;;;;20.42;4.20;;;;;;;5.93;100.00;101641.97;4802201;29;20488;-78
2021/12/14 21:50:01;;;;;;;19.92;4.13;;;;;;;6.11;100.00;101664.19;4804223;29;20431;-78
2021/12/14 21:52:30;;;;;;;27.77;4.10;;;;;;;6.12;100.00;101670.38;4800323;29;20506;-79
2021/12/14 21:55:20;;;;;;;25.77;4.15;;;;;;;6.23;100.00;101683.56;4806339;29;20103;-79
2021/12/14 21:57:45;;;;;;;20.85;4.07;;;;;;;6.23;100.00;101678.22;4804276;29;20034;-80
2021/12/14 22:00:36;;;;;;;19.98;3.55;;;;;;;6.27;100.00;101681.44;4789701;29;20046;-79
2021/12/14 22:03:05;;;;;;;19.38;3.60;;;;;;;6.25;100.00;101670.88;4794797;29;20030;-78
2021/12/14 22:05:33;;;;;;;22.02;3.88;;;;;;;6.26;100.00;101666.41;4803313;29;20085;-79
2021/12/14 22:08:03;;;;;;;23.73;4.20;;;;;;;6.24;100.00;101658.50;4792280;29;20512;-79
2021/12/14 22:10:33;;;;;;;22.40;4.50;;;;;;;6.28;100.00;101659.06;4802904;29;20046;-79
2021/12/14 22:12:59;;;;;;;22.92;4.55;;;;;;;6.28;100.00;101664.41;4796003;29;20056;-80
2021/12/14 22:15:33;;;;;;;19.67;3.92;;;;;;;6.23;100.00;101651.50;4800043;29;20038;-79
2021/12/14 22:18:01;;;;;;;20.75;4.53;;;;;;;6.29;100.00;101661.59;4803355;29;20055;-79
2021/12/14 22:20:30;;;;;;;21.98;4.45;;;;;;;6.30;100.00;101657.06;4794550;29;20053;-79
2021/12/14 22:22:57;;;;;;;17.63;4.18;;;;;;;6.30;100.00;101655.25;4791047;29;20308;-80
2021/12/14 22:25:26;;;;;;;19.00;4.10;;;;;;;6.24;100.00;101644.31;4779884;29;20535;-80
2021/12/14 22:27:52;;;;;;;18.83;3.72;;;;;;;6.35;100.00;101649.44;4797448;29;20042;-79
2021/12/14 22:30:20;;;;;;;19.17;3.50;;;;;;;6.34;100.00;101653.09;4789721;29;20067;-79
2021/12/14 22:32:48;;;;;;;25.67;4.20;;;;;;;6.31;100.00;101642.72;4805181;29;20174;-79
2021/12/14 22:35:15;;;;;;;18.85;4.45;;;;;;;6.37;100.00;101647.47;4792072;29;20470;-79
2021/12/14 22:37:41;;;;;;;17.75;3.58;;;;;;;6.25;100.00;101620.09;4804284;29;20041;-80
2021/12/14 22:40:15;;;;;;;21.30;4.25;;;;;;;6.35;100.00;101644.09;4806575;29;20039;-80
2021/12/14 22:45:13;;;;;;;20.17;3.72;;;;;;;6.25;100.00;101632.63;4807133;29;20045;-79
2021/12/14 22:47:39;;;;;;;20.77;4.25;;;;;;;6.34;100.00;101637.06;4804869;29;20042;-80
2021/12/14 22:50:05;;;;;;;22.10;4.60;;;;;;;6.37;100.00;101643.94;4805744;29;20039;-80
2021/12/14 22:52:32;;;;;;;23.92;3.95;;;;;;;6.31;100.00;101640.03;4803629;29;20038;-79
2021/12/14 22:55:06;;;;;;;24.15;4.15;;;;;;;6.23;100.00;101614.06;4804962;29;20184;-80
2021/12/14 22:57:32;;;;;;;16.35;4.70;;;;;;;6.32;100.00;101631.03;4810534;29;20058;-80
2021/12/14 22:59:59;;;;;;;20.30;4.45;;;;;;;6.35;100.00;101626.22;4812963;29;20175;-80
2021/12/14 23:02:28;;;;;;;19.50;4.20;;;;;;;6.28;100.00;101610.94;4802215;29;20102;-79
2021/12/14 23:04:55;;;;;;;17.98;4.32;;;;;;;6.35;100.00;101618.19;4790187;29;20058;-79
2021/12/14 23:07:21;;;;;;;21.67;3.90;;;;;;;6.35;100.00;101625.38;4805401;29;20050;-79
2021/12/14 23:10:00;;;;;;;21.27;4.10;;;;;;;6.33;100.00;101624.69;4789013;29;20050;-79
2021/12/14 23:12:36;;;;;;;17.52;3.80;;;;;;;6.32;100.00;101623.00;4805309;29;20445;-79
2021/12/14 23:15:07;;;;;;;26.27;4.30;;;;;;;6.37;100.00;101619.91;4805218;29;20087;-80
2021/12/14 23:17:45;;;;;;;29.88;5.22;;;;;;;6.35;100.00;101615.50;4804709;29;20022;-80
2021/12/14 23:20:12;;;;;;;25.63;4.68;;;;;;;6.36;100.00;101603.03;4789663;29;20039;-80
2021/12/14 23:22:42;;;;;;;24.67;4.30;;;;;;;6.34;100.00;101603.16;4806173;29;20058;-79
2021/12/14 23:25:12;;;;;;;26.98;4.75;;;;;;;6.36;100.00;101605.69;4789997;29;20369;-79
2021/12/14 23:27:38;;;;;;;18.60;4.40;;;;;;;6.34;100.00;101599.66;4805562;29;20038;-79
2021/12/14 23:30:11;;;;;;;17.80;4.38;;;;;;;6.33;100.00;101581.94;4805800;29;20034;-80
2021/12/14 23:32:37;;;;;;;21.15;4.53;;;;;;;6.25;100.00;101573.81;4805134;29;20035;-79
2021/12/14 23:35:05;;;;;;;25.73;4.75;;;;;;;6.40;100.00;101598.22;4800326;29;20091;-80
2021/12/14 23:37:31;;;;;;;22.90;4.65;;;;;;;6.36;100.00;101595.00;4786528;30;20589;-79
2021/12/14 23:39:58;;;;;;;22.67;3.95;;;;;;;6.39;100.00;101599.19;4788303;29;20139;-79
2021/12/14 23:42:25;;;;;;;21.73;3.90;;;;;;;6.33;100.00;101589.97;4789230;29;20469;-80
2021/12/14 23:44:53;;;;;;;24.35;4.30;;;;;;;6.39;100.00;101597.38;4806103;29;20591;-80
2021/12/14 23:47:25;;;;;;;23.45;4.25;;;;;;;6.43;100.00;101593.41;4791549;29;20129;-80
2021/12/14 23:49:55;;;;;;;20.30;3.95;;;;;;;6.32;100.00;101577.56;4805206;29;20045;-80
2021/12/14 23:52:22;;;;;;;24.40;4.32;;;;;;;6.41;100.00;101597.22;4805483;29;20108;-79
2021/12/14 23:54:48;;;;;;;23.42;4.40;;;;;;;6.27;100.00;101563.84;4809762;29;20511;-80
2021/12/14 23:57:13;;;;;;;18.65;4.25;;;;;;;6.39;100.00;101589.34;4809912;29;20031;-79
2021/12/14 23:59:39;;;;;;;23.83;4.78;;;;;;;6.42;100.00;101585.50;4804356;29;20488;-79
